Aeroporto :
LOGIN :

Iscrizione | Disclaimer

   EN    FR    IT 

 










Sommario :    VFR   VFR Marginale   IFR   IFR Intensivo   IFR Molto Intensivo
Visibilità : 
Base nubi : 
>= 8 km
>= 3000ft
5 / 8 km
1000 / 3000 ft
1500m / 5 km
500 / 1000 ft
800 / 1500m
200 / 500 ft
< 800m
< 200 ft
Simboli :   Temporali  Nebbia  Neve Forte  Precipitazioni Forti  Vento > 20 kt
SIGMETs :   Varie  Temporali  Ghiacco  Turbolenza  Onda orograficha  Ceneri Vulcaniche






- Altitudine del aeroporto : 203 ft
- Codice IATA : XMJ


LFBM - Mont-De-Marsan

ULTIMO METAR :
  • 260030Z AUTO 07004KT 0600 0500 R27/0600U FG BKN006 04/03 Q1014 BECMG VV///

METARs OBSOLETI :
  • 260000Z AUTO 06005KT 6000 NSC 02/02 Q1014 BECMG 0600 FG VV///
  • 252330Z AUTO 06004KT 8000 NSC 03/02 Q1015 BECMG 0600 FG VV///
  • 252300Z AUTO 00000KT 5000 0650 R27/P2000 BCFG NSC 04/03 Q1015 BECMG 0600 FG VV///
  • 252230Z AUTO 00000KT 5000 BR NSC 05/04 Q1015 BECMG 0600 FG VV///
  • 252200Z AUTO 00000KT 6000 NSC 05/04 Q1014 BECMG 0600 FG VV///

TAF TAF LFBM
Valido dal 25 a 21 ore il 26 a 21 ore UTC


252000Z 2521/2621 07003KT CAVOK
TEMPO 2521/2523 3000 BR
BECMG 2523/2602 0600 FG VV///
TEMPO 2603/2608 0300
BECMG 2608/2611 9999 NSW NSC



MetMap, La meteo Aeronautica in un colpo d'occhio ! - Copyright ORBIFLY Dicembre 2007 - Disclaimer

ORBIFLY MET'MAP TEAM :

Programmazione e sviluppo : Alexandra Zaïnal
Concezione : Baudouin d'Aumeries
Aiuto per la programmazione : Marc-Olivier Méhu
Supporto tecnico e logistico : Manuel Goepfert
Aiuto per la traduzione : Arnaldo La Scala

Contatto : metmap@orbifly.com




FONTI E CREDITI :

   NOAA